Time;durP1;ratioP1;P1;durP2;ratioP2;P2;SDS_P1;SDS_P2;PMS_P1;PMS_P2;Temp;Humidity;BMP_temperature;BMP_pressure;BME280_temperature;BME280_humidity;BME280_pressure;Samples;Min_cycle;Max_cycle;Signal;HPM_P1;HPM_P2
2021/11/29 00:02:48;;;;;;;9.00;5.90;;;;;;;;;;10282642;28;20087;-64
2021/11/29 00:07:46;;;;;;;11.90;4.50;;;;;;;;;;10278747;28;20060;-62
2021/11/29 00:12:45;;;;;;;6.05;3.75;;;;;;;;;;10270057;28;20076;-63
2021/11/29 00:17:45;;;;;;;9.63;3.70;;;;;;;;;;10278591;28;20069;-63
2021/11/29 00:22:44;;;;;;;7.35;3.67;;;;;;;;;;10285214;28;20378;-63
2021/11/29 00:27:42;;;;;;;9.30;3.08;;;;;;;;;;10279990;28;20496;-64
2021/11/29 00:32:41;;;;;;;7.00;3.38;;;;;;;;;;10281887;28;20182;-63
2021/11/29 00:37:41;;;;;;;4.70;3.15;;;;;;;;;;10288715;28;20068;-63
2021/11/29 00:42:43;;;;;;;9.55;3.67;;;;;;;;;;10291086;28;20061;-63
2021/11/29 00:47:42;;;;;;;6.53;3.80;;;;;;;;;;10277421;28;20072;-63
2021/11/29 00:52:42;;;;;;;7.55;3.72;;;;;;;;;;10277539;28;20152;-63
2021/11/29 00:57:40;;;;;;;6.20;3.13;;;;;;;;;;10277428;28;20098;-63
2021/11/29 01:02:39;;;;;;;6.07;3.83;;;;;;;;;;10276870;28;20056;-63
2021/11/29 01:07:38;;;;;;;10.77;7.35;;;;;;;;;;10280437;28;20064;-65
2021/11/29 01:12:38;;;;;;;6.82;3.80;;;;;;;;;;10286048;28;20060;-63
2021/11/29 01:17:36;;;;;;;9.82;4.32;;;;;;;;;;10275943;28;20083;-63
2021/11/29 01:22:35;;;;;;;7.15;4.38;;;;;;;;;;10278882;28;20523;-64
2021/11/29 01:27:33;;;;;;;7.40;3.55;;;;;;;;;;10275770;28;20075;-63
2021/11/29 01:32:33;;;;;;;10.55;4.00;;;;;;;;;;10282512;28;20493;-64
2021/11/29 01:37:31;;;;;;;10.90;6.65;;;;;;;;;;10284855;28;20068;-64
2021/11/29 01:42:29;;;;;;;6.70;4.20;;;;;;;;;;10274098;28;20065;-63
2021/11/29 01:47:28;;;;;;;8.98;4.03;;;;;;;;;;10275292;28;20068;-63
2021/11/29 01:52:28;;;;;;;5.38;3.47;;;;;;;;;;10280931;28;20078;-64
2021/11/29 01:57:26;;;;;;;5.50;3.70;;;;;;;;;;10273279;28;20068;-64
2021/11/29 02:02:27;;;;;;;7.18;3.67;;;;;;;;;;10274582;28;20174;-63
2021/11/29 02:07:28;;;;;;;6.53;3.78;;;;;;;;;;10274763;28;20060;-63
2021/11/29 02:12:27;;;;;;;5.45;3.30;;;;;;;;;;10273144;28;20069;-63
2021/11/29 02:17:25;;;;;;;7.68;4.00;;;;;;;;;;10275475;28;20076;-64
2021/11/29 02:22:25;;;;;;;6.15;4.18;;;;;;;;;;10275079;28;20092;-64
2021/11/29 02:27:23;;;;;;;6.32;4.07;;;;;;;;;;10275238;28;20072;-63
2021/11/29 02:32:22;;;;;;;8.52;4.13;;;;;;;;;;10289079;28;20072;-64
2021/11/29 02:37:20;;;;;;;6.13;4.18;;;;;;;;;;10283204;28;20518;-63
2021/11/29 02:42:20;;;;;;;6.78;3.95;;;;;;;;;;10278341;28;20064;-63
2021/11/29 02:47:18;;;;;;;6.70;3.80;;;;;;;;;;10276112;28;20374;-63
2021/11/29 02:52:17;;;;;;;8.43;4.30;;;;;;;;;;10281620;28;20045;-63
2021/11/29 02:57:17;;;;;;;8.43;3.97;;;;;;;;;;10280576;28;20072;-64
2021/11/29 03:02:17;;;;;;;13.65;6.25;;;;;;;;;;10287577;28;20092;-64
2021/11/29 03:07:16;;;;;;;14.23;5.60;;;;;;;;;;10275275;28;20485;-63
2021/11/29 03:12:15;;;;;;;11.27;6.25;;;;;;;;;;10282282;28;20076;-63
2021/11/29 03:17:13;;;;;;;9.95;6.63;;;;;;;;;;10270113;28;20069;-63
2021/11/29 03:22:13;;;;;;;16.02;7.13;;;;;;;;;;10273254;28;20075;-64
2021/11/29 03:27:12;;;;;;;15.77;8.63;;;;;;;;;;10281433;28;20082;-64
2021/11/29 03:32:11;;;;;;;35.13;17.92;;;;;;;;;;10274981;28;20083;-64
2021/11/29 03:37:10;;;;;;;27.00;19.83;;;;;;;;;;10284880;28;20067;-64
2021/11/29 03:42:10;;;;;;;19.35;11.90;;;;;;;;;;10291642;28;20061;-64
2021/11/29 03:47:09;;;;;;;18.00;11.60;;;;;;;;;;10276077;28;20105;-64
2021/11/29 03:52:07;;;;;;;16.15;10.40;;;;;;;;;;10271806;28;20483;-64
2021/11/29 03:57:06;;;;;;;15.02;9.48;;;;;;;;;;10274310;28;20064;-63
2021/11/29 04:02:07;;;;;;;11.88;8.15;;;;;;;;;;10271804;28;20049;-63
2021/11/29 04:07:05;;;;;;;11.18;7.50;;;;;;;;;;10272698;28;20167;-64
2021/11/29 04:12:04;;;;;;;14.43;7.18;;;;;;;;;;10274352;28;20084;-64
2021/11/29 04:17:02;;;;;;;16.23;8.73;;;;;;;;;;10281578;28;20072;-64
2021/11/29 04:22:03;;;;;;;26.10;15.63;;;;;;;;;;10271783;28;20045;-64
2021/11/29 04:27:03;;;;;;;14.68;9.35;;;;;;;;;;10271852;28;20455;-64
2021/11/29 04:32:02;;;;;;;9.93;8.70;;;;;;;;;;10273135;28;20544;-64
2021/11/29 04:37:03;;;;;;;12.18;7.78;;;;;;;;;;10283599;28;20516;-64
2021/11/29 04:42:01;;;;;;;10.20;7.97;;;;;;;;;;10271288;28;20072;-64
2021/11/29 04:46:59;;;;;;;10.68;7.93;;;;;;;;;;10272850;28;20076;-63
2021/11/29 04:51:58;;;;;;;9.07;6.30;;;;;;;;;;10279931;28;20073;-64
2021/11/29 04:56:57;;;;;;;13.68;7.97;;;;;;;;;;10270755;28;20076;-64
2021/11/29 05:01:56;;;;;;;13.07;7.10;;;;;;;;;;10275038;28;20068;-63
2021/11/29 05:06:54;;;;;;;11.90;6.88;;;;;;;;;;10299331;28;20076;-63
2021/11/29 05:11:53;;;;;;;22.98;10.50;;;;;;;;;;10298693;28;20547;-63
2021/11/29 05:16:52;;;;;;;19.00;11.23;;;;;;;;;;10296906;28;20048;-64
2021/11/29 05:21:51;;;;;;;17.33;11.32;;;;;;;;;;10283703;28;20072;-63
2021/11/29 05:26:49;;;;;;;24.30;13.50;;;;;;;;;;10291616;28;20732;-62
2021/11/29 05:31:47;;;;;;;19.45;14.13;;;;;;;;;;10301327;28;20454;-63
2021/11/29 05:36:47;;;;;;;40.17;30.30;;;;;;;;;;10277470;28;20483;-62
2021/11/29 05:41:46;;;;;;;20.10;14.02;;;;;;;;;;10277609;28;20073;-63
2021/11/29 05:46:46;;;;;;;17.02;10.75;;;;;;;;;;10284054;28;20083;-63
2021/11/29 05:51:44;;;;;;;50.10;36.75;;;;;;;;;;10294829;28;20088;-64
2021/11/29 05:56:44;;;;;;;15.30;12.98;;;;;;;;;;10276417;28;20080;-63
2021/11/29 06:01:42;;;;;;;7.60;6.18;;;;;;;;;;10274553;28;20080;-64
2021/11/29 06:06:42;;;;;;;13.50;8.50;;;;;;;;;;10272741;28;20111;-63
2021/11/29 06:11:41;;;;;;;5.88;4.55;;;;;;;;;;10277753;28;20561;-64
2021/11/29 06:16:41;;;;;;;6.03;4.05;;;;;;;;;;10283850;28;20083;-64
2021/11/29 06:21:39;;;;;;;11.57;7.63;;;;;;;;;;10283535;28;20069;-64
2021/11/29 06:26:39;;;;;;;9.82;6.88;;;;;;;;;;10289234;28;20072;-64
2021/11/29 06:31:38;;;;;;;9.80;7.35;;;;;;;;;;10276331;28;20076;-64
2021/11/29 06:36:37;;;;;;;19.75;10.60;;;;;;;;;;10289385;28;20045;-64
2021/11/29 06:41:36;;;;;;;11.93;8.07;;;;;;;;;;10274411;28;20072;-64
2021/11/29 06:46:34;;;;;;;7.55;5.50;;;;;;;;;;10279099;28;20103;-64
2021/11/29 06:51:33;;;;;;;11.30;7.50;;;;;;;;;;10273980;28;20069;-64
2021/11/29 06:56:33;;;;;;;11.38;8.50;;;;;;;;;;10274252;28;20069;-64
2021/11/29 07:01:32;;;;;;;16.55;9.98;;;;;;;;;;10279876;28;20086;-64
2021/11/29 07:06:30;;;;;;;11.38;9.63;;;;;;;;;;10287681;28;20099;-64
2021/11/29 07:11:29;;;;;;;16.45;12.27;;;;;;;;;;10293146;28;20033;-62
2021/11/29 07:16:29;;;;;;;18.08;15.20;;;;;;;;;;10275350;28;20502;-63
2021/11/29 07:21:27;;;;;;;21.13;17.80;;;;;;;;;;10273121;28;20072;-62
2021/11/29 07:26:25;;;;;;;39.53;28.48;;;;;;;;;;10274004;28;20375;-62
2021/11/29 07:31:24;;;;;;;23.73;19.98;;;;;;;;;;10271530;28;20469;-63
2021/11/29 07:36:24;;;;;;;29.08;23.00;;;;;;;;;;10269680;28;20095;-64
2021/11/29 07:41:23;;;;;;;28.95;23.25;;;;;;;;;;10278869;28;20083;-62
2021/11/29 07:46:21;;;;;;;32.13;23.70;;;;;;;;;;10267640;28;20088;-63
2021/11/29 07:51:19;;;;;;;36.50;27.40;;;;;;;;;;10267684;28;20529;-62
2021/11/29 07:56:19;;;;;;;22.60;18.70;;;;;;;;;;10268798;28;20065;-63
2021/11/29 08:01:17;;;;;;;25.70;18.40;;;;;;;;;;10274638;28;20076;-63
2021/11/29 08:06:16;;;;;;;25.70;20.50;;;;;;;;;;10271486;28;20080;-63
2021/11/29 08:11:15;;;;;;;27.15;24.23;;;;;;;;;;10271334;28;20068;-63
2021/11/29 08:16:15;;;;;;;26.67;22.75;;;;;;;;;;10275273;28;20396;-63
2021/11/29 08:21:13;;;;;;;20.33;17.63;;;;;;;;;;10271893;28;20072;-63
2021/11/29 08:26:12;;;;;;;22.17;18.52;;;;;;;;;;10270741;28;20064;-63
2021/11/29 08:31:10;;;;;;;51.83;39.85;;;;;;;;;;10278077;28;20099;-63
2021/11/29 08:36:10;;;;;;;28.10;22.17;;;;;;;;;;10279314;28;20069;-63
2021/11/29 08:41:09;;;;;;;23.17;17.30;;;;;;;;;;10282043;28;20064;-63
2021/11/29 08:46:07;;;;;;;21.70;17.63;;;;;;;;;;10278860;28;20076;-64
2021/11/29 08:51:06;;;;;;;20.23;17.02;;;;;;;;;;10278679;28;20065;-63
2021/11/29 08:56:06;;;;;;;17.80;14.30;;;;;;;;;;10282870;28;20071;-64
2021/11/29 09:01:05;;;;;;;16.63;14.25;;;;;;;;;;10278059;28;20072;-63
2021/11/29 09:06:04;;;;;;;26.48;19.90;;;;;;;;;;10282210;28;20522;-64
2021/11/29 09:11:04;;;;;;;19.30;15.48;;;;;;;;;;10277483;28;20081;-64
2021/11/29 09:16:13;;;;;;;17.90;12.60;;;;;;;;;;10286611;28;20067;-63
2021/11/29 09:21:13;;;;;;;20.33;16.33;;;;;;;;;;10276939;28;20072;-64
2021/11/29 09:26:12;;;;;;;16.17;14.20;;;;;;;;;;10277693;28;20478;-64
2021/11/29 09:31:12;;;;;;;18.67;12.70;;;;;;;;;;10282561;28;20073;-64
2021/11/29 09:36:11;;;;;;;20.83;15.90;;;;;;;;;;10290382;28;20079;-64
2021/11/29 09:41:10;;;;;;;19.55;15.18;;;;;;;;;;10281071;28;20509;-64
2021/11/29 09:46:09;;;;;;;15.10;11.60;;;;;;;;;;10275914;28;20514;-64
2021/11/29 09:51:10;;;;;;;18.05;14.73;;;;;;;;;;10274292;28;20065;-63
2021/11/29 09:56:09;;;;;;;17.17;15.27;;;;;;;;;;10276126;28;20064;-63
2021/11/29 10:01:08;;;;;;;17.85;15.10;;;;;;;;;;10275555;28;20057;-63
2021/11/29 10:06:27;;;;;;;16.48;14.65;;;;;;;;;;10316075;28;20072;-64
2021/11/29 10:11:28;;;;;;;19.42;16.83;;;;;;;;;;10316731;28;20095;-63
2021/11/29 10:16:31;;;;;;;19.88;17.77;;;;;;;;;;10298233;28;20069;-64
2021/11/29 10:21:33;;;;;;;23.33;19.80;;;;;;;;;;10275047;28;20065;-64
2021/11/29 10:26:36;;;;;;;19.25;17.17;;;;;;;;;;10272149;28;20071;-64
2021/11/29 10:31:37;;;;;;;19.70;16.13;;;;;;;;;;10272189;28;20187;-63
2021/11/29 10:36:40;;;;;;;17.83;15.50;;;;;;;;;;10287081;28;20080;-63
2021/11/29 10:41:39;;;;;;;24.73;17.63;;;;;;;;;;10290058;28;20080;-63
2021/11/29 10:46:38;;;;;;;17.02;14.68;;;;;;;;;;10277117;28;20259;-63
2021/11/29 10:51:38;;;;;;;15.65;13.45;;;;;;;;;;10273172;28;20077;-62
2021/11/29 10:56:38;;;;;;;16.73;13.52;;;;;;;;;;10280996;28;20072;-63
2021/11/29 11:01:38;;;;;;;23.73;18.17;;;;;;;;;;10274312;28;20158;-62
2021/11/29 11:06:40;;;;;;;21.15;17.83;;;;;;;;;;10274612;28;20079;-63
2021/11/29 11:11:41;;;;;;;20.30;15.95;;;;;;;;;;10274189;28;20080;-62
2021/11/29 11:16:56;;;;;;;20.33;17.35;;;;;;;;;;10273749;28;20051;-63
2021/11/29 11:21:57;;;;;;;14.80;12.40;;;;;;;;;;10272819;28;20096;-63
2021/11/29 11:26:58;;;;;;;13.70;11.35;;;;;;;;;;10273759;28;20048;-63
2021/11/29 11:32:07;;;;;;;15.65;11.73;;;;;;;;;;10273999;28;20072;-63
2021/11/29 11:37:07;;;;;;;13.65;9.50;;;;;;;;;;10284361;28;20083;-63
2021/11/29 11:42:06;;;;;;;12.15;8.93;;;;;;;;;;10274997;28;20131;-63
2021/11/29 11:47:06;;;;;;;9.63;7.75;;;;;;;;;;10282109;28;20547;-62
2021/11/29 11:52:09;;;;;;;10.02;7.03;;;;;;;;;;10272522;28;20509;-63
2021/11/29 11:57:08;;;;;;;14.75;8.38;;;;;;;;;;10272958;28;20525;-63
2021/11/29 12:02:08;;;;;;;6.50;5.30;;;;;;;;;;10272244;28;20075;-64
2021/11/29 12:07:08;;;;;;;12.88;9.00;;;;;;;;;;10273015;28;20064;-62
2021/11/29 12:12:07;;;;;;;11.25;8.68;;;;;;;;;;10279249;28;20068;-62
2021/11/29 12:17:21;;;;;;;12.68;11.43;;;;;;;;;;10272446;28;20328;-63
2021/11/29 12:22:33;;;;;;;14.32;11.60;;;;;;;;;;10268864;28;20429;-63
2021/11/29 12:27:41;;;;;;;8.90;7.30;;;;;;;;;;10274306;28;20073;-63
2021/11/29 12:32:50;;;;;;;13.20;9.68;;;;;;;;;;10291227;28;20084;-63
2021/11/29 12:38:00;;;;;;;8.50;7.45;;;;;;;;;;10271583;28;20073;-63
2021/11/29 12:43:03;;;;;;;7.97;6.55;;;;;;;;;;10271197;28;20072;-61
2021/11/29 12:48:09;;;;;;;15.68;14.07;;;;;;;;;;10275540;28;20072;-62
2021/11/29 12:53:10;;;;;;;5.47;4.80;;;;;;;;;;10292407;28;20064;-62
2021/11/29 12:58:22;;;;;;;8.77;7.03;;;;;;;;;;10290516;28;20064;-62
2021/11/29 13:03:29;;;;;;;11.55;8.90;;;;;;;;;;10286135;28;20114;-63
2021/11/29 13:08:31;;;;;;;15.32;12.25;;;;;;;;;;10285593;28;20502;-62
2021/11/29 13:13:32;;;;;;;10.60;8.05;;;;;;;;;;10286239;28;20315;-62
2021/11/29 13:18:50;;;;;;;8.85;7.30;;;;;;;;;;10286025;28;20072;-63
2021/11/29 13:23:51;;;;;;;9.20;7.20;;;;;;;;;;10292303;28;20064;-63
2021/11/29 13:28:51;;;;;;;36.30;29.65;;;;;;;;;;10306969;28;20103;-63
2021/11/29 13:33:50;;;;;;;27.02;17.98;;;;;;;;;;10291415;28;20115;-63
2021/11/29 13:39:15;;;;;;;19.30;16.20;;;;;;;;;;10293877;28;20072;-62
2021/11/29 13:44:17;;;;;;;21.40;12.40;;;;;;;;;;10294481;28;20075;-63
2021/11/29 13:49:16;;;;;;;8.82;7.78;;;;;;;;;;10293289;28;20092;-63
2021/11/29 13:54:15;;;;;;;5.57;5.00;;;;;;;;;;10294128;28;20068;-62
2021/11/29 13:59:15;;;;;;;7.85;6.93;;;;;;;;;;10297507;28;20075;-63
2021/11/29 14:04:14;;;;;;;11.80;9.52;;;;;;;;;;10293221;28;21022;-61
2021/11/29 14:09:15;;;;;;;13.73;11.50;;;;;;;;;;10291940;28;20072;-63
2021/11/29 14:14:21;;;;;;;26.23;20.73;;;;;;;;;;10296463;28;20080;-62
2021/11/29 14:19:20;;;;;;;129.75;72.55;;;;;;;;;;10294494;28;20071;-62
2021/11/29 14:24:19;;;;;;;115.05;58.83;;;;;;;;;;10298844;28;20064;-63
2021/11/29 14:29:19;;;;;;;107.78;47.83;;;;;;;;;;10290633;28;20064;-63
2021/11/29 14:34:19;;;;;;;12.65;11.35;;;;;;;;;;10290592;28;20106;-63
2021/11/29 14:39:24;;;;;;;13.13;9.77;;;;;;;;;;10278598;28;20068;-63
2021/11/29 14:44:25;;;;;;;23.15;13.43;;;;;;;;;;10289877;28;20533;-63
2021/11/29 14:49:31;;;;;;;32.83;21.65;;;;;;;;;;10283035;28;20565;-63
2021/11/29 14:54:29;;;;;;;33.75;21.70;;;;;;;;;;10274364;28;20064;-63
2021/11/29 14:59:29;;;;;;;16.83;11.85;;;;;;;;;;10279841;28;20064;-63
2021/11/29 15:04:30;;;;;;;23.00;14.63;;;;;;;;;;10274587;28;20072;-64
2021/11/29 15:09:28;;;;;;;15.50;10.15;;;;;;;;;;10274600;28;20069;-64
2021/11/29 15:14:27;;;;;;;30.38;26.27;;;;;;;;;;10285747;28;20063;-64
2021/11/29 15:19:28;;;;;;;17.67;14.15;;;;;;;;;;10273760;28;20080;-64
2021/11/29 15:24:27;;;;;;;12.25;10.13;;;;;;;;;;10270320;28;20084;-64
2021/11/29 15:29:35;;;;;;;34.22;25.63;;;;;;;;;;10284008;28;20084;-64
2021/11/29 15:34:35;;;;;;;20.95;15.15;;;;;;;;;;10285469;28;20208;-64
2021/11/29 15:39:34;;;;;;;23.55;17.67;;;;;;;;;;10291202;28;20071;-64
2021/11/29 15:44:32;;;;;;;31.73;21.73;;;;;;;;;;10268375;28;20056;-64
2021/11/29 15:49:30;;;;;;;29.48;17.00;;;;;;;;;;10278446;28;20095;-64
2021/11/29 15:54:32;;;;;;;33.38;18.67;;;;;;;;;;10275919;28;20072;-64
2021/11/29 15:59:30;;;;;;;26.75;19.27;;;;;;;;;;10278159;28;20076;-65
2021/11/29 16:04:29;;;;;;;25.50;19.48;;;;;;;;;;10279319;28;20617;-64
2021/11/29 16:09:28;;;;;;;12.45;9.77;;;;;;;;;;10283000;28;20075;-64
2021/11/29 16:14:27;;;;;;;47.85;33.38;;;;;;;;;;10273103;28;20068;-64
2021/11/29 16:19:26;;;;;;;26.90;19.33;;;;;;;;;;10271999;28;20072;-64
2021/11/29 16:24:24;;;;;;;34.70;19.05;;;;;;;;;;10272534;28;20410;-64
2021/11/29 16:29:22;;;;;;;14.50;10.80;;;;;;;;;;10270894;28;20068;-64
2021/11/29 16:34:22;;;;;;;14.27;8.23;;;;;;;;;;10281845;28;20091;-64
2021/11/29 16:39:21;;;;;;;14.85;11.50;;;;;;;;;;10278620;28;20064;-64
2021/11/29 16:44:19;;;;;;;9.95;8.95;;;;;;;;;;10271516;28;20446;-64
2021/11/29 16:49:17;;;;;;;16.02;10.30;;;;;;;;;;10269279;28;20072;-65
2021/11/29 16:54:17;;;;;;;18.40;13.63;;;;;;;;;;10271416;28;20063;-64
2021/11/29 16:59:20;;;;;;;23.50;16.63;;;;;;;;;;10276600;28;20178;-65
2021/11/29 17:04:18;;;;;;;16.38;11.32;;;;;;;;;;10278741;28;20107;-65
2021/11/29 17:09:18;;;;;;;19.27;13.80;;;;;;;;;;10295315;28;20076;-65
2021/11/29 17:14:16;;;;;;;15.80;11.43;;;;;;;;;;10281348;28;20075;-64
2021/11/29 17:19:15;;;;;;;12.95;9.93;;;;;;;;;;10284551;28;20060;-63
2021/11/29 17:24:13;;;;;;;10.75;8.82;;;;;;;;;;10284870;28;20510;-62
2021/11/29 17:29:13;;;;;;;13.50;11.40;;;;;;;;;;10283145;28;20072;-63
2021/11/29 17:34:12;;;;;;;13.20;10.63;;;;;;;;;;10284419;28;20140;-64
2021/11/29 17:39:10;;;;;;;38.58;27.75;;;;;;;;;;10282363;28;20076;-64
2021/11/29 17:44:09;;;;;;;27.77;18.45;;;;;;;;;;10280393;28;20076;-64
2021/11/29 17:49:09;;;;;;;15.18;9.82;;;;;;;;;;10276934;28;20072;-64
2021/11/29 17:54:10;;;;;;;26.27;16.98;;;;;;;;;;10276896;28;20513;-64
2021/11/29 17:59:09;;;;;;;12.80;8.25;;;;;;;;;;10276762;28;20075;-64
2021/11/29 18:04:14;;;;;;;18.10;11.80;;;;;;;;;;10277262;28;20067;-63
2021/11/29 18:14:25;;;;;;;10.45;8.55;;;;;;;;;;10276539;28;20474;-64
2021/11/29 18:19:27;;;;;;;21.65;12.50;;;;;;;;;;10278115;28;20080;-65
2021/11/29 18:24:29;;;;;;;24.55;15.32;;;;;;;;;;10277386;28;20076;-63
2021/11/29 18:29:33;;;;;;;9.63;7.55;;;;;;;;;;10286572;28;20084;-64
2021/11/29 18:34:32;;;;;;;12.18;9.55;;;;;;;;;;10277717;28;20088;-63
2021/11/29 18:39:31;;;;;;;19.75;11.70;;;;;;;;;;10294702;28;20059;-63
2021/11/29 18:44:29;;;;;;;16.20;12.38;;;;;;;;;;10293772;28;20064;-63
2021/11/29 18:49:27;;;;;;;18.55;13.45;;;;;;;;;;10294254;28;20072;-63
2021/11/29 18:54:27;;;;;;;20.55;13.73;;;;;;;;;;10289952;28;20155;-63
2021/11/29 18:59:26;;;;;;;42.25;22.70;;;;;;;;;;10282611;28;20061;-63
2021/11/29 19:04:24;;;;;;;15.18;10.38;;;;;;;;;;10289410;28;20080;-64
2021/11/29 19:09:23;;;;;;;16.10;10.50;;;;;;;;;;10282364;28;20075;-63
2021/11/29 19:14:22;;;;;;;12.43;8.20;;;;;;;;;;10288775;28;20099;-64
2021/11/29 19:19:21;;;;;;;11.85;7.50;;;;;;;;;;10288206;28;20163;-64
2021/11/29 19:24:20;;;;;;;7.55;5.60;;;;;;;;;;10290263;28;20077;-63
2021/11/29 19:29:19;;;;;;;9.77;7.38;;;;;;;;;;10293406;28;20065;-64
2021/11/29 19:34:18;;;;;;;13.43;7.43;;;;;;;;;;10292049;28;20091;-65
2021/11/29 19:39:17;;;;;;;20.25;13.25;;;;;;;;;;10294954;28;20075;-64
2021/11/29 19:44:19;;;;;;;17.20;10.00;;;;;;;;;;10292127;28;20469;-63
2021/11/29 19:49:19;;;;;;;11.57;7.97;;;;;;;;;;10300467;28;20037;-63
2021/11/29 19:54:18;;;;;;;75.55;38.53;;;;;;;;;;10279999;28;20083;-64
2021/11/29 19:59:17;;;;;;;79.35;42.10;;;;;;;;;;10274316;28;20064;-63
2021/11/29 20:04:17;;;;;;;34.05;22.58;;;;;;;;;;10286860;28;20491;-63
2021/11/29 20:09:18;;;;;;;23.25;14.98;;;;;;;;;;10289561;28;20072;-63
2021/11/29 20:14:17;;;;;;;91.28;52.75;;;;;;;;;;10291186;28;20060;-62
2021/11/29 20:19:19;;;;;;;94.65;60.13;;;;;;;;;;10293169;28;20076;-63
2021/11/29 20:24:19;;;;;;;78.78;48.65;;;;;;;;;;10289858;28;20076;-64
2021/11/29 20:29:19;;;;;;;60.92;40.08;;;;;;;;;;10293861;28;20084;-63
2021/11/29 20:34:18;;;;;;;49.28;33.22;;;;;;;;;;10298016;28;20083;-62
2021/11/29 20:39:19;;;;;;;57.47;45.97;;;;;;;;;;10298645;28;20072;-63
2021/11/29 20:44:20;;;;;;;132.52;79.82;;;;;;;;;;10299555;28;20143;-63
2021/11/29 20:49:19;;;;;;;201.15;116.65;;;;;;;;;;10299252;28;20524;-63
2021/11/29 20:54:17;;;;;;;167.07;106.07;;;;;;;;;;10296356;28;20071;-63
2021/11/29 20:59:15;;;;;;;78.10;40.72;;;;;;;;;;10290555;28;20072;-63
2021/11/29 21:04:15;;;;;;;62.20;32.75;;;;;;;;;;10282313;28;20041;-63
2021/11/29 21:09:13;;;;;;;9.95;6.78;;;;;;;;;;10281292;28;20044;-64
2021/11/29 21:14:13;;;;;;;8.02;5.28;;;;;;;;;;10281427;28;20072;-64
2021/11/29 21:19:12;;;;;;;19.05;11.48;;;;;;;;;;10280885;28;20076;-63
2021/11/29 21:24:14;;;;;;;17.23;10.45;;;;;;;;;;10280626;28;20065;-63
2021/11/29 21:29:13;;;;;;;9.05;6.38;;;;;;;;;;10287437;28;20068;-64
2021/11/29 21:34:12;;;;;;;42.35;23.23;;;;;;;;;;10295432;28;20081;-64
2021/11/29 21:39:13;;;;;;;11.85;8.45;;;;;;;;;;10280211;28;20029;-64
2021/11/29 21:44:12;;;;;;;89.95;55.60;;;;;;;;;;10286659;28;20080;-63
2021/11/29 21:49:13;;;;;;;142.15;80.40;;;;;;;;;;10290366;28;20071;-63
2021/11/29 21:54:13;;;;;;;97.22;56.00;;;;;;;;;;10279036;28;20076;-63
2021/11/29 21:59:11;;;;;;;88.93;47.60;;;;;;;;;;10279204;28;20084;-64
2021/11/29 22:04:09;;;;;;;7.70;5.68;;;;;;;;;;10276966;28;20111;-63
2021/11/29 22:09:09;;;;;;;12.15;7.50;;;;;;;;;;10277279;28;20072;-63
2021/11/29 22:14:10;;;;;;;22.08;14.20;;;;;;;;;;10286600;28;20509;-63
2021/11/29 22:19:08;;;;;;;76.50;44.85;;;;;;;;;;10288876;28;20080;-62
2021/11/29 22:24:06;;;;;;;75.50;46.92;;;;;;;;;;10288896;28;20098;-63
2021/11/29 22:29:05;;;;;;;41.25;25.52;;;;;;;;;;10288237;28;20069;-63
2021/11/29 22:34:05;;;;;;;37.72;23.50;;;;;;;;;;10289677;28;20096;-64
2021/11/29 22:39:04;;;;;;;26.40;14.63;;;;;;;;;;10275457;28;20486;-64
2021/11/29 22:44:03;;;;;;;101.97;56.90;;;;;;;;;;10281150;28;20064;-64
2021/11/29 22:49:01;;;;;;;40.63;26.08;;;;;;;;;;10275651;28;20545;-63
2021/11/29 22:54:01;;;;;;;14.65;8.30;;;;;;;;;;10274344;28;20064;-63
2021/11/29 22:58:59;;;;;;;8.32;5.45;;;;;;;;;;10286550;28;20501;-63
2021/11/29 23:04:00;;;;;;;7.63;5.70;;;;;;;;;;10274930;28;20493;-63
2021/11/29 23:08:59;;;;;;;6.35;4.45;;;;;;;;;;10275384;28;20083;-62
2021/11/29 23:14:00;;;;;;;13.35;10.60;;;;;;;;;;10279558;28;20064;-64
2021/11/29 23:18:59;;;;;;;7.90;5.00;;;;;;;;;;10282316;28;20099;-64
2021/11/29 23:23:58;;;;;;;21.10;14.65;;;;;;;;;;10277142;28;20453;-64
2021/11/29 23:28:57;;;;;;;38.45;17.85;;;;;;;;;;10274290;28;20061;-64
2021/11/29 23:33:57;;;;;;;18.17;10.52;;;;;;;;;;10288052;28;20084;-63
2021/11/29 23:38:56;;;;;;;13.38;9.25;;;;;;;;;;10273926;28;20150;-64
2021/11/29 23:43:55;;;;;;;9.77;5.90;;;;;;;;;;10273596;28;20076;-64
2021/11/29 23:48:55;;;;;;;10.98;7.97;;;;;;;;;;10274042;28;20081;-63
2021/11/29 23:53:56;;;;;;;8.70;7.68;;;;;;;;;;10273545;28;20084;-63
2021/11/29 23:58:55;;;;;;;11.77;5.78;;;;;;;;;;10272941;28;20060;-63
